Time;durP1;ratioP1;P1;durP2;ratioP2;P2;SDS_P1;SDS_P2;PMS_P1;PMS_P2;Temp;Humidity;BMP_temperature;BMP_pressure;BME280_temperature;BME280_humidity;BME280_pressure;Samples;Min_cycle;Max_cycle;Signal;HPM_P1;HPM_P2
2021/09/16 00:01:23;;;;;;;5.95;0.93;;;;;;;;;;5012853;28;20366;-60
2021/09/16 00:03:49;;;;;;;10.55;0.90;;;;;;;;;;5020093;28;20425;-61
2021/09/16 00:06:15;;;;;;;12.23;0.70;;;;;;;;;;5027019;28;20109;-61
2021/09/16 00:08:41;;;;;;;10.82;0.90;;;;;;;;;;5021310;28;20037;-61
2021/09/16 00:11:07;;;;;;;7.05;0.90;;;;;;;;;;5012018;28;20041;-61
2021/09/16 00:13:33;;;;;;;12.23;0.70;;;;;;;;;;5079804;28;20430;-61
2021/09/16 00:15:59;;;;;;;7.75;0.85;;;;;;;;;;5022601;28;20468;-61
2021/09/16 00:18:25;;;;;;;4.88;0.60;;;;;;;;;;5016815;28;20042;-60
2021/09/16 00:20:51;;;;;;;10.88;0.98;;;;;;;;;;5011813;28;20118;-60
2021/09/16 00:23:17;;;;;;;4.85;0.90;;;;;;;;;;5012947;28;20029;-62
2021/09/16 00:25:43;;;;;;;19.85;0.90;;;;;;;;;;5013296;28;20037;-61
2021/09/16 00:28:10;;;;;;;2.85;0.57;;;;;;;;;;5011986;28;20030;-61
2021/09/16 00:30:36;;;;;;;8.07;0.80;;;;;;;;;;5011975;28;20018;-60
2021/09/16 00:33:02;;;;;;;7.68;0.80;;;;;;;;;;5011892;28;20057;-60
2021/09/16 00:35:28;;;;;;;7.25;0.70;;;;;;;;;;5011665;28;20065;-62
2021/09/16 00:37:54;;;;;;;15.43;0.75;;;;;;;;;;5070858;27;20027;-61
2021/09/16 00:40:20;;;;;;;4.85;0.90;;;;;;;;;;5117120;27;20042;-61
2021/09/16 00:42:46;;;;;;;7.45;0.68;;;;;;;;;;5018659;27;20034;-61
2021/09/16 00:45:13;;;;;;;1.95;0.60;;;;;;;;;;5011713;28;20420;-61
2021/09/16 00:47:48;;;;;;;14.13;0.80;;;;;;;;;;5011488;28;20053;-61
2021/09/16 00:50:15;;;;;;;3.33;0.90;;;;;;;;;;5011491;28;20058;-61
2021/09/16 00:52:41;;;;;;;8.75;0.98;;;;;;;;;;5011434;28;20105;-61
2021/09/16 00:55:08;;;;;;;10.40;0.75;;;;;;;;;;5011414;28;20136;-61
2021/09/16 00:57:35;;;;;;;9.25;1.10;;;;;;;;;;5025283;28;20033;-62
2021/09/16 01:00:03;;;;;;;9.38;0.80;;;;;;;;;;5030230;28;20485;-61
2021/09/16 01:02:29;;;;;;;13.75;1.40;;;;;;;;;;5031247;28;20032;-60
2021/09/16 01:04:55;;;;;;;11.63;1.23;;;;;;;;;;5031476;28;20017;-61
2021/09/16 01:07:21;;;;;;;9.77;0.60;;;;;;;;;;5030859;28;20100;-62
2021/09/16 01:09:47;;;;;;;11.77;1.10;;;;;;;;;;5099408;28;20473;-67
2021/09/16 01:12:14;;;;;;;6.78;0.70;;;;;;;;;;5030340;28;20477;-61
2021/09/16 01:14:40;;;;;;;14.25;0.75;;;;;;;;;;5031176;28;20112;-61
2021/09/16 01:17:06;;;;;;;12.32;0.95;;;;;;;;;;5100817;27;20023;-61
2021/09/16 01:19:32;;;;;;;13.63;0.82;;;;;;;;;;5116247;27;20475;-61
2021/09/16 01:21:58;;;;;;;6.15;0.63;;;;;;;;;;5134860;27;20023;-62
2021/09/16 01:24:24;;;;;;;8.52;0.95;;;;;;;;;;5134855;27;20139;-61
2021/09/16 01:26:50;;;;;;;11.18;0.82;;;;;;;;;;5134670;27;20161;-61
2021/09/16 01:29:16;;;;;;;6.28;0.73;;;;;;;;;;5025504;27;20094;-61
2021/09/16 01:31:46;;;;;;;2.38;0.52;;;;;;;;;;5010854;28;20087;-61
2021/09/16 01:34:13;;;;;;;3.15;0.60;;;;;;;;;;5011292;28;20049;-61
2021/09/16 01:36:40;;;;;;;7.68;0.75;;;;;;;;;;5010778;28;20026;-60
2021/09/16 01:39:09;;;;;;;6.57;0.80;;;;;;;;;;5131636;27;20038;-61
2021/09/16 01:41:35;;;;;;;11.18;0.93;;;;;;;;;;5134408;27;20107;-61
2021/09/16 01:44:01;;;;;;;5.25;0.80;;;;;;;;;;5102807;27;20015;-62
2021/09/16 01:46:28;;;;;;;4.35;0.75;;;;;;;;;;5030344;28;20426;-64
2021/09/16 01:48:54;;;;;;;4.30;0.55;;;;;;;;;;5030638;28;20353;-61
2021/09/16 01:51:20;;;;;;;15.50;0.88;;;;;;;;;;5030247;28;20027;-61
2021/09/16 01:53:46;;;;;;;3.88;0.70;;;;;;;;;;5098643;28;20026;-61
2021/09/16 01:56:12;;;;;;;10.38;0.80;;;;;;;;;;5030542;28;20492;-61
2021/09/16 01:58:38;;;;;;;11.00;1.30;;;;;;;;;;5030108;28;20053;-61
2021/09/16 02:01:05;;;;;;;4.95;0.70;;;;;;;;;;5098422;28;20033;-61
2021/09/16 02:03:31;;;;;;;4.60;0.80;;;;;;;;;;5029789;28;20026;-61
2021/09/16 02:05:58;;;;;;;9.65;0.82;;;;;;;;;;5030549;28;20112;-61
2021/09/16 02:08:24;;;;;;;3.65;0.65;;;;;;;;;;5029985;28;20528;-60
2021/09/16 02:10:50;;;;;;;9.18;1.15;;;;;;;;;;5030065;28;20029;-62
2021/09/16 02:13:16;;;;;;;12.52;0.82;;;;;;;;;;5029897;28;20365;-61
2021/09/16 02:15:42;;;;;;;12.43;0.90;;;;;;;;;;5039986;27;20022;-61
2021/09/16 02:18:08;;;;;;;4.28;0.60;;;;;;;;;;5118419;27;20045;-62
2021/09/16 02:20:35;;;;;;;5.75;0.63;;;;;;;;;;5029924;28;20057;-61
2021/09/16 02:23:01;;;;;;;23.30;1.10;;;;;;;;;;5030038;28;20033;-61
2021/09/16 02:25:27;;;;;;;15.00;0.70;;;;;;;;;;5029739;28;20053;-61
2021/09/16 02:27:54;;;;;;;9.80;0.70;;;;;;;;;;5029803;28;20028;-61
2021/09/16 02:30:20;;;;;;;16.02;1.10;;;;;;;;;;5029883;28;20086;-61
2021/09/16 02:32:46;;;;;;;19.98;1.05;;;;;;;;;;5029652;28;20025;-61
2021/09/16 02:35:12;;;;;;;7.28;0.75;;;;;;;;;;5098075;28;20392;-61
2021/09/16 02:37:39;;;;;;;18.33;1.02;;;;;;;;;;5115089;28;20746;-62
2021/09/16 02:40:06;;;;;;;9.43;0.80;;;;;;;;;;5133487;28;20039;-61
2021/09/16 02:42:32;;;;;;;12.93;0.73;;;;;;;;;;5133624;28;20486;-61
2021/09/16 02:44:58;;;;;;;13.23;1.02;;;;;;;;;;5133959;28;20054;-62
2021/09/16 02:47:24;;;;;;;21.58;1.05;;;;;;;;;;5040831;28;20057;-61
2021/09/16 02:49:50;;;;;;;9.60;1.45;;;;;;;;;;5029592;28;20480;-61
2021/09/16 02:52:16;;;;;;;8.27;1.10;;;;;;;;;;5029584;28;20026;-61
2021/09/16 02:54:42;;;;;;;15.23;1.00;;;;;;;;;;5029418;28;20029;-60
2021/09/16 02:57:08;;;;;;;10.10;0.90;;;;;;;;;;5029705;28;20075;-61
2021/09/16 02:59:34;;;;;;;14.30;1.30;;;;;;;;;;5029562;28;20065;-61
2021/09/16 03:02:00;;;;;;;11.07;1.00;;;;;;;;;;5028416;28;20064;-61
2021/09/16 03:04:26;;;;;;;6.03;1.10;;;;;;;;;;5009837;28;20030;-60
2021/09/16 03:06:52;;;;;;;12.52;1.15;;;;;;;;;;5009991;28;20034;-60
2021/09/16 03:09:18;;;;;;;9.70;1.00;;;;;;;;;;5009419;28;20078;-61
2021/09/16 03:11:44;;;;;;;10.90;1.30;;;;;;;;;;5077226;28;20041;-60
2021/09/16 03:14:10;;;;;;;8.35;1.05;;;;;;;;;;5009461;28;20041;-61
2021/09/16 03:16:36;;;;;;;14.43;1.20;;;;;;;;;;5067775;28;20019;-61
2021/09/16 03:19:02;;;;;;;6.68;0.90;;;;;;;;;;5133150;28;20039;-61
2021/09/16 03:21:28;;;;;;;15.93;1.08;;;;;;;;;;5093166;28;20037;-61
2021/09/16 03:23:54;;;;;;;12.40;0.88;;;;;;;;;;5012705;28;20500;-61
2021/09/16 03:26:20;;;;;;;12.98;0.98;;;;;;;;;;5012862;28;20033;-61
2021/09/16 03:28:46;;;;;;;14.75;0.95;;;;;;;;;;5012975;28;20026;-61
2021/09/16 03:31:12;;;;;;;6.38;0.70;;;;;;;;;;5081039;28;20103;-61
2021/09/16 03:33:38;;;;;;;11.82;1.10;;;;;;;;;;5012539;28;20030;-62
2021/09/16 03:36:08;;;;;;;13.35;1.27;;;;;;;;;;5012895;28;20373;-61
2021/09/16 03:38:34;;;;;;;7.32;1.15;;;;;;;;;;5106879;27;20019;-60
2021/09/16 03:41:00;;;;;;;11.18;1.20;;;;;;;;;;5136944;27;20028;-60
2021/09/16 03:43:27;;;;;;;9.98;1.17;;;;;;;;;;5136773;27;20385;-61
2021/09/16 03:45:53;;;;;;;11.02;1.13;;;;;;;;;;5136926;27;20034;-61
2021/09/16 03:48:19;;;;;;;12.27;1.33;;;;;;;;;;5137356;27;20061;-61
2021/09/16 03:50:45;;;;;;;16.63;0.98;;;;;;;;;;5136746;27;20063;-61
2021/09/16 03:53:11;;;;;;;10.00;0.95;;;;;;;;;;5063913;27;20079;-61
2021/09/16 03:55:37;;;;;;;7.13;0.85;;;;;;;;;;5031810;28;20522;-63
2021/09/16 03:58:03;;;;;;;8.02;1.20;;;;;;;;;;5031967;28;20033;-61
2021/09/16 04:00:29;;;;;;;13.77;1.08;;;;;;;;;;5031852;28;20041;-61
2021/09/16 04:02:55;;;;;;;9.93;0.90;;;;;;;;;;5031916;28;20033;-60
2021/09/16 04:05:21;;;;;;;14.48;0.90;;;;;;;;;;5032327;28;20426;-61
2021/09/16 04:07:47;;;;;;;6.00;0.88;;;;;;;;;;5032377;28;20083;-61
2021/09/16 04:10:13;;;;;;;12.98;1.00;;;;;;;;;;5032304;28;20028;-60
2021/09/16 04:12:39;;;;;;;3.78;0.70;;;;;;;;;;5032113;28;20476;-61
2021/09/16 04:15:05;;;;;;;7.88;0.95;;;;;;;;;;5031841;28;20074;-61
2021/09/16 04:17:31;;;;;;;6.13;0.95;;;;;;;;;;5031768;28;20030;-61
2021/09/16 04:19:57;;;;;;;9.50;0.70;;;;;;;;;;5031279;28;20049;-61
2021/09/16 04:22:23;;;;;;;12.43;0.85;;;;;;;;;;5031925;28;20044;-61
2021/09/16 04:24:49;;;;;;;2.60;0.70;;;;;;;;;;5083500;28;20397;-61
2021/09/16 04:27:15;;;;;;;5.55;0.90;;;;;;;;;;5011898;28;20062;-62
2021/09/16 04:29:42;;;;;;;8.38;0.80;;;;;;;;;;5079652;28;20056;-60
2021/09/16 04:32:08;;;;;;;6.60;0.80;;;;;;;;;;5011979;28;20030;-62
2021/09/16 04:34:34;;;;;;;5.10;0.80;;;;;;;;;;5011834;28;20022;-60
2021/09/16 04:37:00;;;;;;;8.15;0.73;;;;;;;;;;5025667;27;20105;-60
2021/09/16 04:39:26;;;;;;;10.18;0.75;;;;;;;;;;5136225;27;20030;-61
2021/09/16 04:41:52;;;;;;;8.85;0.82;;;;;;;;;;5136017;27;20035;-60
2021/09/16 04:44:18;;;;;;;9.93;1.00;;;;;;;;;;5117051;27;20019;-61
2021/09/16 04:46:44;;;;;;;5.40;0.98;;;;;;;;;;5135534;27;20051;-61
2021/09/16 04:49:10;;;;;;;7.05;0.82;;;;;;;;;;5135276;27;20027;-61
2021/09/16 04:51:36;;;;;;;8.10;0.60;;;;;;;;;;5129595;27;20115;-61
2021/09/16 04:54:02;;;;;;;8.63;1.10;;;;;;;;;;5031878;28;20445;-61
2021/09/16 04:56:28;;;;;;;6.95;0.80;;;;;;;;;;5031094;28;20078;-60
2021/09/16 04:58:54;;;;;;;5.78;1.08;;;;;;;;;;5031018;28;20033;-60
2021/09/16 05:01:20;;;;;;;6.95;0.95;;;;;;;;;;5045249;27;20033;-61
2021/09/16 05:03:46;;;;;;;4.72;0.80;;;;;;;;;;5041496;27;20028;-63
2021/09/16 05:06:12;;;;;;;10.35;0.93;;;;;;;;;;5106525;27;20126;-61
2021/09/16 05:08:38;;;;;;;7.72;1.20;;;;;;;;;;5050897;27;20023;-61
2021/09/16 05:11:04;;;;;;;5.80;0.77;;;;;;;;;;5123348;27;20427;-60
2021/09/16 05:13:30;;;;;;;9.30;0.80;;;;;;;;;;5075062;27;20100;-61
2021/09/16 05:15:56;;;;;;;12.77;0.90;;;;;;;;;;5083705;27;20110;-61
2021/09/16 05:18:22;;;;;;;6.63;0.90;;;;;;;;;;5077628;27;20110;-60
2021/09/16 05:20:48;;;;;;;3.13;0.80;;;;;;;;;;5085983;27;20108;-62
2021/09/16 05:23:14;;;;;;;16.63;0.90;;;;;;;;;;5030928;28;20022;-60
2021/09/16 05:25:40;;;;;;;18.08;0.82;;;;;;;;;;5099163;28;20429;-60
2021/09/16 05:28:06;;;;;;;17.35;0.90;;;;;;;;;;5062445;27;20139;-62
2021/09/16 05:30:32;;;;;;;6.40;0.80;;;;;;;;;;5134645;27;20050;-60
2021/09/16 05:32:58;;;;;;;6.93;1.05;;;;;;;;;;5134938;27;20019;-60
2021/09/16 05:35:24;;;;;;;6.68;0.95;;;;;;;;;;5134378;27;20083;-60
2021/09/16 05:37:50;;;;;;;6.63;0.80;;;;;;;;;;5134582;27;20031;-61
2021/09/16 05:40:16;;;;;;;4.60;0.90;;;;;;;;;;5119785;27;20110;-61
2021/09/16 05:42:42;;;;;;;12.07;0.90;;;;;;;;;;5089583;28;20449;-60
2021/09/16 05:45:09;;;;;;;7.07;0.73;;;;;;;;;;5077676;28;20052;-60
2021/09/16 05:47:35;;;;;;;5.22;0.90;;;;;;;;;;5010640;28;20071;-61
2021/09/16 05:50:00;;;;;;;24.48;0.95;;;;;;;;;;5011695;28;20030;-61
2021/09/16 05:52:27;;;;;;;11.40;1.10;;;;;;;;;;5091014;28;20056;-60
2021/09/16 05:54:53;;;;;;;22.60;1.38;;;;;;;;;;5021978;28;20465;-60
2021/09/16 05:57:18;;;;;;;23.50;1.80;;;;;;;;;;5090103;27;20041;-60
2021/09/16 05:59:44;;;;;;;30.63;1.80;;;;;;;;;;5080097;28;20083;-60
2021/09/16 06:02:10;;;;;;;55.22;2.17;;;;;;;;;;5010402;28;20032;-60
2021/09/16 06:04:36;;;;;;;43.97;2.22;;;;;;;;;;5016316;28;20426;-60
2021/09/16 06:07:05;;;;;;;40.83;1.60;;;;;;;;;;5010724;28;20029;-60
2021/09/16 06:09:32;;;;;;;46.15;2.15;;;;;;;;;;5018435;28;20551;-60
2021/09/16 06:11:59;;;;;;;21.48;1.58;;;;;;;;;;5020987;28;20499;-60
2021/09/16 06:14:26;;;;;;;17.20;1.42;;;;;;;;;;5016028;28;20052;-61
2021/09/16 06:16:52;;;;;;;31.40;1.40;;;;;;;;;;5020419;28;20058;-61
2021/09/16 06:19:18;;;;;;;28.88;1.40;;;;;;;;;;5009875;28;20049;-60
2021/09/16 06:21:44;;;;;;;16.17;1.88;;;;;;;;;;5025997;28;20030;-63
2021/09/16 06:24:10;;;;;;;18.67;1.10;;;;;;;;;;5017964;28;20032;-64
2021/09/16 06:26:36;;;;;;;26.35;1.30;;;;;;;;;;5025326;28;20025;-62
2021/09/16 06:29:02;;;;;;;16.10;1.00;;;;;;;;;;5019310;28;20116;-62
2021/09/16 06:31:28;;;;;;;12.43;1.58;;;;;;;;;;5018392;28;20030;-62
2021/09/16 06:33:54;;;;;;;13.48;1.27;;;;;;;;;;5095928;28;20033;-63
2021/09/16 06:36:20;;;;;;;12.73;1.10;;;;;;;;;;5106274;28;20026;-66
2021/09/16 06:38:46;;;;;;;10.32;0.90;;;;;;;;;;5065698;28;20017;-62
2021/09/16 06:41:12;;;;;;;5.85;1.05;;;;;;;;;;5066596;28;20037;-62
2021/09/16 06:43:38;;;;;;;10.98;1.00;;;;;;;;;;5039784;28;20054;-63
2021/09/16 06:46:04;;;;;;;8.88;0.80;;;;;;;;;;5010130;28;20061;-63
2021/09/16 06:48:30;;;;;;;13.25;1.00;;;;;;;;;;5009614;28;20499;-63
2021/09/16 06:50:56;;;;;;;10.93;1.27;;;;;;;;;;5085906;28;20038;-62
2021/09/16 06:53:22;;;;;;;7.72;0.70;;;;;;;;;;5021519;28;20021;-62
2021/09/16 06:55:48;;;;;;;15.82;1.13;;;;;;;;;;5026876;28;20030;-63
2021/09/16 06:58:15;;;;;;;4.57;0.93;;;;;;;;;;5013577;28;20460;-63
2021/09/16 07:00:41;;;;;;;14.98;1.05;;;;;;;;;;5049675;27;20048;-67
2021/09/16 07:03:07;;;;;;;11.18;0.98;;;;;;;;;;5016322;28;20030;-66
2021/09/16 07:05:33;;;;;;;8.55;0.95;;;;;;;;;;5017608;28;20030;-68
2021/09/16 07:07:58;;;;;;;6.47;0.80;;;;;;;;;;5066111;27;20084;-64
2021/09/16 07:10:24;;;;;;;11.55;0.80;;;;;;;;;;5016909;28;20079;-65
2021/09/16 07:12:50;;;;;;;9.35;0.90;;;;;;;;;;5032581;28;20030;-69
2021/09/16 07:15:17;;;;;;;5.05;0.95;;;;;;;;;;5077235;27;20489;-71
2021/09/16 07:17:43;;;;;;;6.30;0.80;;;;;;;;;;5078115;27;20025;-74
2021/09/16 07:20:10;;;;;;;2.47;0.90;;;;;;;;;;5082749;27;20042;-70
2021/09/16 07:22:38;;;;;;;12.63;1.00;;;;;;;;;;5085235;27;20074;-74
2021/09/16 07:25:04;;;;;;;3.65;0.95;;;;;;;;;;5099626;28;20029;-78
2021/09/16 07:27:30;;;;;;;5.00;0.70;;;;;;;;;;5082539;27;20404;-77
2021/09/16 07:29:56;;;;;;;2.88;0.75;;;;;;;;;;5080771;27;20496;-76
2021/09/16 07:32:22;;;;;;;7.07;0.80;;;;;;;;;;5090335;27;20071;-72
2021/09/16 07:34:48;;;;;;;8.45;1.15;;;;;;;;;;5087558;27;20039;-66
2021/09/16 07:37:14;;;;;;;6.20;0.80;;;;;;;;;;5083366;27;20466;-66
2021/09/16 07:39:40;;;;;;;7.40;0.90;;;;;;;;;;5027452;28;20045;-66
2021/09/16 07:42:06;;;;;;;6.30;1.00;;;;;;;;;;5020596;28;20052;-66
2021/09/16 07:44:32;;;;;;;8.10;1.10;;;;;;;;;;5017125;28;20034;-67
2021/09/16 07:46:58;;;;;;;11.82;1.20;;;;;;;;;;5042758;27;20052;-66
2021/09/16 07:49:24;;;;;;;9.82;1.00;;;;;;;;;;5072839;27;20021;-66
2021/09/16 07:51:50;;;;;;;11.55;0.82;;;;;;;;;;5088976;27;20023;-66
2021/09/16 07:54:16;;;;;;;3.88;0.80;;;;;;;;;;5084993;27;20026;-66
2021/09/16 07:56:42;;;;;;;6.88;0.95;;;;;;;;;;5085071;27;20036;-65
2021/09/16 07:59:09;;;;;;;7.88;0.77;;;;;;;;;;5084830;27;20735;-66
2021/09/16 08:01:35;;;;;;;4.25;0.77;;;;;;;;;;5083549;27;20036;-65
2021/09/16 08:04:02;;;;;;;6.05;0.90;;;;;;;;;;5081295;27;20015;-65
2021/09/16 08:06:27;;;;;;;3.60;0.90;;;;;;;;;;5080980;27;20030;-66
2021/09/16 08:08:54;;;;;;;5.82;1.00;;;;;;;;;;5061023;27;20029;-66
2021/09/16 08:11:20;;;;;;;4.25;0.90;;;;;;;;;;5122336;27;20114;-62
2021/09/16 08:13:46;;;;;;;4.60;1.00;;;;;;;;;;5107725;27;20036;-66
2021/09/16 08:16:12;;;;;;;9.10;0.90;;;;;;;;;;5099236;28;20049;-61
2021/09/16 08:18:38;;;;;;;3.58;0.80;;;;;;;;;;5031655;28;20150;-66
2021/09/16 08:21:04;;;;;;;6.25;1.00;;;;;;;;;;5031290;28;20041;-66
2021/09/16 08:23:31;;;;;;;2.35;0.70;;;;;;;;;;5031682;28;20070;-66
2021/09/16 08:25:57;;;;;;;5.22;1.10;;;;;;;;;;5031651;28;20022;-66
2021/09/16 08:28:23;;;;;;;2.97;0.80;;;;;;;;;;5031885;28;20120;-66
2021/09/16 08:30:49;;;;;;;8.27;0.95;;;;;;;;;;5040235;27;20045;-66
2021/09/16 08:33:15;;;;;;;4.55;0.65;;;;;;;;;;5098152;28;20455;-67
2021/09/16 08:35:42;;;;;;;16.27;1.00;;;;;;;;;;5109861;27;20120;-67
2021/09/16 08:38:08;;;;;;;4.32;0.93;;;;;;;;;;5091066;27;20027;-66
2021/09/16 08:40:34;;;;;;;4.90;0.70;;;;;;;;;;5135378;27;20030;-66
2021/09/16 08:43:01;;;;;;;2.05;0.60;;;;;;;;;;5117083;27;20027;-67
2021/09/16 08:45:27;;;;;;;4.28;0.93;;;;;;;;;;5135446;27;20027;-67
2021/09/16 08:47:55;;;;;;;5.90;0.77;;;;;;;;;;5135531;27;20051;-67
2021/09/16 08:50:23;;;;;;;4.53;0.77;;;;;;;;;;5055210;27;20026;-67
2021/09/16 08:52:50;;;;;;;4.05;0.93;;;;;;;;;;5048190;27;20457;-66
2021/09/16 08:55:17;;;;;;;4.72;0.82;;;;;;;;;;5031338;28;20060;-66
2021/09/16 08:57:45;;;;;;;4.68;0.77;;;;;;;;;;5031253;28;20033;-67
2021/09/16 09:00:12;;;;;;;6.43;1.05;;;;;;;;;;5031151;28;20093;-67
2021/09/16 09:02:38;;;;;;;3.00;0.68;;;;;;;;;;5101935;27;20391;-66
2021/09/16 09:05:06;;;;;;;6.22;1.02;;;;;;;;;;5042414;27;20035;-67
2021/09/16 09:07:42;;;;;;;3.00;0.80;;;;;;;;;;5122089;27;20084;-63
2021/09/16 09:10:10;;;;;;;4.97;1.08;;;;;;;;;;5135235;27;20023;-63
2021/09/16 09:12:37;;;;;;;3.47;0.80;;;;;;;;;;5135132;27;20099;-66
2021/09/16 09:15:04;;;;;;;1.55;0.60;;;;;;;;;;5116614;27;20037;-67
2021/09/16 09:17:31;;;;;;;4.57;0.70;;;;;;;;;;5134780;27;20374;-66
2021/09/16 09:20:05;;;;;;;9.43;1.08;;;;;;;;;;5042948;27;20050;-67
2021/09/16 09:22:33;;;;;;;2.08;0.75;;;;;;;;;;5030329;28;20414;-66
2021/09/16 09:25:00;;;;;;;3.90;0.98;;;;;;;;;;5030605;28;20101;-66
2021/09/16 09:27:28;;;;;;;2.92;0.63;;;;;;;;;;5030627;28;20028;-66
2021/09/16 09:30:03;;;;;;;1.65;0.63;;;;;;;;;;5030850;28;20379;-67
2021/09/16 09:32:44;;;;;;;1.63;0.82;;;;;;;;;;5098785;28;20466;-66
2021/09/16 09:35:28;;;;;;;2.65;0.70;;;;;;;;;;5030311;28;20025;-64
2021/09/16 09:37:54;;;;;;;1.92;0.60;;;;;;;;;;5080380;27;20056;-64
2021/09/16 09:40:40;;;;;;;6.30;0.60;;;;;;;;;;5134428;27;20042;-66
2021/09/16 09:43:19;;;;;;;3.85;0.65;;;;;;;;;;5134225;27;20024;-61
2021/09/16 09:46:05;;;;;;;3.17;0.90;;;;;;;;;;5134512;27;20118;-61
2021/09/16 09:48:31;;;;;;;1.55;0.60;;;;;;;;;;5115823;27;20094;-61
2021/09/16 09:50:58;;;;;;;2.15;0.75;;;;;;;;;;5133914;27;20026;-60
2021/09/16 09:53:24;;;;;;;5.47;0.80;;;;;;;;;;5133852;27;20110;-63
2021/09/16 09:55:50;;;;;;;4.55;0.98;;;;;;;;;;5134384;27;20071;-66
2021/09/16 09:58:28;;;;;;;4.28;0.65;;;;;;;;;;5134190;27;20106;-66
2021/09/16 10:00:54;;;;;;;2.28;0.65;;;;;;;;;;5134441;27;20031;-70
2021/09/16 10:03:27;;;;;;;3.47;0.60;;;;;;;;;;5134525;27;20378;-73
2021/09/16 10:05:53;;;;;;;27.48;1.10;;;;;;;;;;5134269;27;20378;-68
2021/09/16 10:08:20;;;;;;;5.88;0.65;;;;;;;;;;5134415;27;20357;-65
2021/09/16 10:10:50;;;;;;;8.23;0.73;;;;;;;;;;5122623;27;20054;-66
2021/09/16 10:13:19;;;;;;;4.93;0.60;;;;;;;;;;5030302;28;20022;-66
2021/09/16 10:15:49;;;;;;;13.43;1.40;;;;;;;;;;5030559;28;20029;-63
2021/09/16 10:18:15;;;;;;;10.18;1.00;;;;;;;;;;5099109;27;20570;-62
2021/09/16 10:20:41;;;;;;;9.50;1.00;;;;;;;;;;5115163;27;20031;-61
2021/09/16 10:23:08;;;;;;;10.20;1.05;;;;;;;;;;5112041;27;20021;-64
2021/09/16 10:25:34;;;;;;;21.77;1.17;;;;;;;;;;5030269;28;20033;-64
2021/09/16 10:28:02;;;;;;;10.57;1.10;;;;;;;;;;5120257;28;20482;-63
2021/09/16 10:30:30;;;;;;;11.88;1.60;;;;;;;;;;5133417;27;20463;-66
2021/09/16 10:33:00;;;;;;;7.35;1.05;;;;;;;;;;5133571;28;20057;-65
2021/09/16 10:35:26;;;;;;;14.75;1.27;;;;;;;;;;5101393;28;20096;-63
2021/09/16 10:37:52;;;;;;;12.75;1.08;;;;;;;;;;5046793;28;20067;-65
2021/09/16 10:40:30;;;;;;;14.15;1.00;;;;;;;;;;5107968;28;20035;-65
2021/09/16 10:42:58;;;;;;;15.95;1.20;;;;;;;;;;5107137;28;20040;-65
2021/09/16 10:45:42;;;;;;;9.02;1.10;;;;;;;;;;5079028;28;20546;-64
2021/09/16 10:48:14;;;;;;;8.57;0.90;;;;;;;;;;5113637;28;20025;-65
2021/09/16 10:50:43;;;;;;;4.97;0.80;;;;;;;;;;5116763;28;20739;-64
2021/09/16 10:53:28;;;;;;;6.60;1.40;;;;;;;;;;5046257;28;20029;-64
2021/09/16 10:55:54;;;;;;;15.38;3.25;;;;;;;;;;5096229;28;20043;-65
2021/09/16 10:58:23;;;;;;;19.80;7.30;;;;;;;;;;5029456;28;20670;-69
2021/09/16 11:00:49;;;;;;;25.70;11.27;;;;;;;;;;5077657;28;20402;-68
2021/09/16 11:03:16;;;;;;;27.52;13.60;;;;;;;;;;5133431;28;20041;-70
2021/09/16 11:05:46;;;;;;;28.48;12.60;;;;;;;;;;5133168;28;20539;-68
2021/09/16 11:08:13;;;;;;;31.77;15.77;;;;;;;;;;5082246;28;20021;-67
2021/09/16 11:10:39;;;;;;;29.73;14.50;;;;;;;;;;5079679;28;20058;-68
2021/09/16 11:13:25;;;;;;;34.17;14.63;;;;;;;;;;5043130;28;20073;-67
2021/09/16 11:15:53;;;;;;;33.08;13.43;;;;;;;;;;5074534;28;20029;-66
2021/09/16 11:18:21;;;;;;;28.42;13.48;;;;;;;;;;5069941;28;20053;-66
2021/09/16 11:20:48;;;;;;;26.90;13.55;;;;;;;;;;5055879;28;20037;-67
2021/09/16 11:23:15;;;;;;;22.90;12.35;;;;;;;;;;5063401;28;20016;-67
2021/09/16 11:25:43;;;;;;;24.10;11.75;;;;;;;;;;5097232;28;20079;-68
2021/09/16 11:28:09;;;;;;;24.33;10.98;;;;;;;;;;5071837;28;20021;-67
2021/09/16 11:30:37;;;;;;;19.33;9.70;;;;;;;;;;5079979;28;20023;-68
2021/09/16 11:33:04;;;;;;;21.90;10.48;;;;;;;;;;5061523;28;20053;-66
2021/09/16 11:35:30;;;;;;;20.95;9.90;;;;;;;;;;5050800;28;20033;-67
2021/09/16 11:37:56;;;;;;;21.92;9.98;;;;;;;;;;5107421;28;20024;-68
2021/09/16 11:40:24;;;;;;;16.50;9.35;;;;;;;;;;5070399;28;20038;-69
2021/09/16 11:43:01;;;;;;;15.73;8.95;;;;;;;;;;5053085;28;20082;-65
2021/09/16 11:45:32;;;;;;;15.52;7.57;;;;;;;;;;5100421;28;20030;-68
2021/09/16 11:48:09;;;;;;;25.67;8.10;;;;;;;;;;5037981;27;20026;-66
2021/09/16 11:50:37;;;;;;;17.92;7.22;;;;;;;;;;5036347;27;20044;-68
2021/09/16 11:53:03;;;;;;;16.92;7.35;;;;;;;;;;5043422;28;20029;-68
2021/09/16 11:55:30;;;;;;;24.40;6.70;;;;;;;;;;5051246;28;20044;-66
2021/09/16 11:57:58;;;;;;;16.38;6.15;;;;;;;;;;5019203;28;20018;-68
2021/09/16 12:00:29;;;;;;;17.88;6.10;;;;;;;;;;5079857;28;20535;-65
2021/09/16 12:02:55;;;;;;;13.55;5.85;;;;;;;;;;5080119;28;20030;-66
2021/09/16 12:05:40;;;;;;;11.65;5.25;;;;;;;;;;5011547;28;20396;-67
2021/09/16 12:08:07;;;;;;;16.50;5.60;;;;;;;;;;5011873;28;20049;-65
2021/09/16 12:10:36;;;;;;;9.80;5.47;;;;;;;;;;5080012;28;20381;-65
2021/09/16 12:13:02;;;;;;;15.88;5.22;;;;;;;;;;5016141;28;20030;-65
2021/09/16 12:15:28;;;;;;;13.27;4.90;;;;;;;;;;5011553;28;20500;-67
2021/09/16 12:17:54;;;;;;;8.85;4.28;;;;;;;;;;5011742;28;20034;-65
2021/09/16 12:20:20;;;;;;;9.13;4.35;;;;;;;;;;5028499;28;20045;-65
2021/09/16 12:22:46;;;;;;;12.50;4.35;;;;;;;;;;5030933;28;20061;-68
2021/09/16 12:25:12;;;;;;;12.30;4.50;;;;;;;;;;5031185;28;20064;-68
2021/09/16 12:27:38;;;;;;;8.38;4.30;;;;;;;;;;5031208;28;20061;-68
2021/09/16 12:30:20;;;;;;;11.05;4.75;;;;;;;;;;5097415;28;20530;-68
2021/09/16 12:32:46;;;;;;;7.50;4.47;;;;;;;;;;5099361;28;20041;-68
2021/09/16 12:35:16;;;;;;;7.00;3.95;;;;;;;;;;5030608;28;20026;-67
2021/09/16 12:37:42;;;;;;;10.82;4.43;;;;;;;;;;5060778;27;20073;-67
2021/09/16 12:40:09;;;;;;;22.88;4.10;;;;;;;;;;5044711;27;20042;-67
2021/09/16 12:42:40;;;;;;;9.52;4.50;;;;;;;;;;5097183;28;20040;-65
2021/09/16 12:45:10;;;;;;;4.20;2.87;;;;;;;;;;5011497;28;20396;-65
2021/09/16 12:47:49;;;;;;;8.95;4.18;;;;;;;;;;5079051;28;20424;-66
2021/09/16 12:50:16;;;;;;;10.10;4.35;;;;;;;;;;5011238;28;20079;-65
2021/09/16 12:52:42;;;;;;;8.02;4.30;;;;;;;;;;5011532;28;20026;-65
2021/09/16 12:55:11;;;;;;;12.05;4.13;;;;;;;;;;5012481;28;20068;-67
2021/09/16 12:57:39;;;;;;;10.60;4.32;;;;;;;;;;5011306;28;20101;-68
2021/09/16 13:00:09;;;;;;;11.48;4.15;;;;;;;;;;5078906;28;20541;-68
2021/09/16 13:02:46;;;;;;;15.18;5.95;;;;;;;;;;5011171;28;20030;-68
2021/09/16 13:05:19;;;;;;;6.90;4.35;;;;;;;;;;5011995;28;20030;-71
2021/09/16 13:08:02;;;;;;;10.23;4.72;;;;;;;;;;5011864;28;20033;-73
2021/09/16 13:10:28;;;;;;;9.80;4.63;;;;;;;;;;5011849;28;20026;-73
2021/09/16 13:13:03;;;;;;;12.10;5.32;;;;;;;;;;5079450;28;20036;-71
2021/09/16 13:15:29;;;;;;;12.77;5.00;;;;;;;;;;5011659;28;20113;-69
2021/09/16 13:17:55;;;;;;;7.68;5.00;;;;;;;;;;5011280;28;20441;-70
2021/09/16 13:20:23;;;;;;;7.93;4.90;;;;;;;;;;5011501;28;20049;-71
2021/09/16 13:22:49;;;;;;;9.02;5.05;;;;;;;;;;5011544;28;20074;-68
2021/09/16 13:25:15;;;;;;;22.50;4.88;;;;;;;;;;5026587;28;20499;-70
2021/09/16 13:27:41;;;;;;;9.15;4.97;;;;;;;;;;5029199;28;20053;-70
2021/09/16 13:30:08;;;;;;;11.20;5.00;;;;;;;;;;5030999;28;20028;-70
2021/09/16 13:32:35;;;;;;;9.25;5.32;;;;;;;;;;5099093;28;20030;-70
2021/09/16 13:35:01;;;;;;;9.18;5.50;;;;;;;;;;5099198;28;20128;-69
2021/09/16 13:37:27;;;;;;;9.27;4.80;;;;;;;;;;5044130;27;20159;-68
2021/09/16 13:39:53;;;;;;;11.57;4.68;;;;;;;;;;5112825;27;20497;-68
2021/09/16 13:42:19;;;;;;;6.57;4.95;;;;;;;;;;5134729;27;20102;-68
2021/09/16 13:44:45;;;;;;;10.60;5.20;;;;;;;;;;5116211;27;20451;-68
2021/09/16 13:47:11;;;;;;;10.07;5.32;;;;;;;;;;5134209;27;20038;-68
2021/09/16 13:49:37;;;;;;;11.82;4.50;;;;;;;;;;5134483;27;20034;-69
2021/09/16 13:52:04;;;;;;;13.18;5.47;;;;;;;;;;5034464;27;20472;-68
2021/09/16 13:54:29;;;;;;;12.43;5.22;;;;;;;;;;5030824;28;20066;-68
2021/09/16 13:56:55;;;;;;;9.23;4.80;;;;;;;;;;5097918;28;20025;-69
2021/09/16 13:59:21;;;;;;;8.50;4.70;;;;;;;;;;5082262;28;20082;-68
2021/09/16 14:01:47;;;;;;;6.68;4.50;;;;;;;;;;5022326;28;20040;-68
2021/09/16 14:04:13;;;;;;;11.60;4.18;;;;;;;;;;5028465;28;20384;-70
2021/09/16 14:06:39;;;;;;;5.97;4.28;;;;;;;;;;5078345;28;20441;-70
2021/09/16 14:09:05;;;;;;;8.55;4.30;;;;;;;;;;5010631;28;20109;-70
2021/09/16 14:11:31;;;;;;;7.95;4.55;;;;;;;;;;5011123;28;20029;-70
2021/09/16 14:13:57;;;;;;;8.77;3.95;;;;;;;;;;5010576;28;20044;-69
2021/09/16 14:16:23;;;;;;;8.48;4.00;;;;;;;;;;5011104;28;20129;-71
2021/09/16 14:18:49;;;;;;;7.90;4.35;;;;;;;;;;5010239;28;20378;-70
2021/09/16 14:21:16;;;;;;;8.75;4.40;;;;;;;;;;5011133;28;20090;-70
2021/09/16 14:23:42;;;;;;;7.05;4.53;;;;;;;;;;5010911;28;20018;-70
2021/09/16 14:26:08;;;;;;;4.65;4.00;;;;;;;;;;5010526;28;20037;-70
2021/09/16 14:28:34;;;;;;;6.85;3.63;;;;;;;;;;5077956;28;20025;-71
2021/09/16 14:31:00;;;;;;;12.02;4.22;;;;;;;;;;5078149;28;20116;-71
2021/09/16 14:33:26;;;;;;;9.95;4.10;;;;;;;;;;5010466;28;20050;-71
2021/09/16 14:35:52;;;;;;;7.85;3.88;;;;;;;;;;5077569;28;20538;-70